Pamlico — WX6900 — position and weather

sailwx.info

Track history (hours):
 
Tides and Currents Weather Stations Pressure Air Temp Water Temp Dewpoint Dewpoint Depression Visibility Wind Speed Wind Dir Waves Ship Positions

Pamlico

Owner: PCS Phosphate, AURORA, NC. More information available from US FCC via Universal Licensing System and Coast Guard Vessel Documentation Center.

Last reported at 2015-Jan-31 06:08 UTC. Time now 2015-Jan-31 13:09 UTC.
Position N 35°05' W 076°32'.

Length 30 m; draft 3 m.

MMSI: 367361220.

Date/timePositionNaut miles runAvg speedWind from/ knotsBaromVisibWave heightAir tempDewpointWater temp
2015-Jan-31 06:08N 35°05' W 076°32'5 8.0
2015-Jan-31 05:33N 35°02' W 076°37'6 5.9
2015-Jan-31 04:33N 34°57' W 076°40'6 5.6
2015-Jan-31 03:33N 34°51' W 076°41'6 5.6
2015-Jan-31 02:34N 34°46' W 076°41'3 2.7
2015-Jan-31 01:33N 34°43' W 076°42'3 2.8
2015-Jan-31 00:33N 34°46' W 076°41'6 5.7
2015-Jan-30 23:33N 34°52' W 076°41'5 5.2
2015-Jan-30 22:33N 34°57' W 076°40'2 0.0
2015-Jan-28 21:33N 34°55' W 076°40'7 7.2
2015-Jan-28 20:34N 34°48' W 076°41'5 4.8
2015-Jan-28 19:33N 34°43' W 076°42'0 0.0
2015-Jan-28 18:33N 34°43' W 076°42'0 0.0
2015-Jan-28 17:33N 34°43' W 076°42'0 0.0
2015-Jan-28 16:33N 34°43' W 076°42'0 0.0
2015-Jan-28 15:34N 34°43' W 076°42'0 0.0
2015-Jan-28 14:33N 34°43' W 076°42'0 0.0
2015-Jan-28 13:33N 34°43' W 076°42'0 0.0
2015-Jan-28 12:33N 34°43' W 076°42'0 0.0
2015-Jan-28 11:33N 34°43' W 076°42'0 0.0
2015-Jan-28 10:34N 34°43' W 076°42'0 0.0
2015-Jan-28 09:33N 34°43' W 076°42'0 0.0
2015-Jan-28 08:33N 34°43' W 076°42'5 5.5
2015-Jan-28 07:33N 34°49' W 076°41'5 4.5
2015-Jan-28 06:33N 34°53' W 076°41'5 4.9
2015-Jan-28 05:33N 34°58' W 076°41'  
2015-Jan-22 06:28N 34°58' W 076°41'5 5.5
2015-Jan-22 05:33N 34°53' W 076°42'6 6.4
2015-Jan-22 04:33N 34°46' W 076°41'3 3.0
2015-Jan-22 03:34N 34°43' W 076°42'1 1.2
2015-Jan-22 02:33N 34°44' W 076°41'5 5.4
2015-Jan-22 01:33N 34°50' W 076°41'5 4.6
2015-Jan-22 00:33N 34°54' W 076°40'  
Track history (hours):
 
Tides and Currents Weather Stations Pressure Air Temp Water Temp Dewpoint Dewpoint Depression Visibility Wind Speed Wind Dir Waves Ship Positions

Pamlico

Owner: PCS Phosphate, AURORA, NC. More information available from US FCC via Universal Licensing System and Coast Guard Vessel Documentation Center.

Last reported at 2015-Jan-31 06:08 UTC. Time now 2015-Jan-31 13:09 UTC.
Position N 35°05' W 076°32'.

Length 30 m; draft 3 m.

MMSI: 367361220.

Date/timePositionNaut miles runAvg speedWind from/ knotsBaromVisibWave heightAir tempDewpointWater temp
2015-Jan-31 06:08N 35°05' W 076°32'5 8.0
2015-Jan-31 05:33N 35°02' W 076°37'6 5.9
2015-Jan-31 04:33N 34°57' W 076°40'6 5.6
2015-Jan-31 03:33N 34°51' W 076°41'6 5.6
2015-Jan-31 02:34N 34°46' W 076°41'3 2.7
2015-Jan-31 01:33N 34°43' W 076°42'3 2.8
2015-Jan-31 00:33N 34°46' W 076°41'6 5.7
2015-Jan-30 23:33N 34°52' W 076°41'5 5.2
2015-Jan-30 22:33N 34°57' W 076°40'2 0.0
2015-Jan-28 21:33N 34°55' W 076°40'7 7.2
2015-Jan-28 20:34N 34°48' W 076°41'5 4.8
2015-Jan-28 19:33N 34°43' W 076°42'0 0.0
2015-Jan-28 18:33N 34°43' W 076°42'0 0.0
2015-Jan-28 17:33N 34°43' W 076°42'0 0.0
2015-Jan-28 16:33N 34°43' W 076°42'0 0.0
2015-Jan-28 15:34N 34°43' W 076°42'0 0.0
2015-Jan-28 14:33N 34°43' W 076°42'0 0.0
2015-Jan-28 13:33N 34°43' W 076°42'0 0.0
2015-Jan-28 12:33N 34°43' W 076°42'0 0.0
2015-Jan-28 11:33N 34°43' W 076°42'0 0.0
2015-Jan-28 10:34N 34°43' W 076°42'0 0.0
2015-Jan-28 09:33N 34°43' W 076°42'0 0.0
2015-Jan-28 08:33N 34°43' W 076°42'5 5.5
2015-Jan-28 07:33N 34°49' W 076°41'5 4.5
2015-Jan-28 06:33N 34°53' W 076°41'5 4.9
2015-Jan-28 05:33N 34°58' W 076°41'  
2015-Jan-22 06:28N 34°58' W 076°41'5 5.5
2015-Jan-22 05:33N 34°53' W 076°42'6 6.4
2015-Jan-22 04:33N 34°46' W 076°41'3 3.0
2015-Jan-22 03:34N 34°43' W 076°42'1 1.2
2015-Jan-22 02:33N 34°44' W 076°41'5 5.4
2015-Jan-22 01:33N 34°50' W 076°41'5 4.6
2015-Jan-22 00:33N 34°54' W 076°40'  

Dump ship's entire track history